<?xml version="1.0" encoding="UTF-8" standalone="no" ?>
<gpx xmlns="http://www.topografix.com/GPX/1/1" xmlns:xsi="http://www.w3.org/2001/XMLSchema-instance" xsi:schemaLocation="http://www.topografix.com/GPX/1/1 http://www.topografix.com/GPX/1/1/gpx.xsd" version="1.1" creator="VisuGPX - https://www.visugpx.com">
  <metadata>
    <name>Rando du 17 05 2016</name>
    <desc><![CDATA[Arbonne la Forêt ( les 150 marches ) avec Michel VALLUET]]></desc>
  </metadata>
  <trk>
    <name><![CDATA[--Arbonne-la-Forêt-- OR-5983455:Chapeau de Napoleon]]></name>
    <trkseg>
      <trkpt lat="48.40133" lon="2.54623">
        <ele>78</ele>
        <time>2016-05-17T15:05:22Z</time>
      </trkpt>
      <trkpt lat="48.40131" lon="2.54607">
        <ele>78</ele>
        <time>2016-05-17T15:07:22Z</time>
      </trkpt>
      <trkpt lat="48.40129" lon="2.54598">
        <ele>78</ele>
        <time>2016-05-17T15:09:22Z</time>
      </trkpt>
      <trkpt lat="48.40126" lon="2.54592">
        <ele>78</ele>
        <time>2016-05-17T15:11:22Z</time>
      </trkpt>
      <trkpt lat="48.40122" lon="2.54591">
        <ele>77</ele>
        <time>2016-05-17T15:13:22Z</time>
      </trkpt>
      <trkpt lat="48.40117" lon="2.54593">
        <ele>77</ele>
        <time>2016-05-17T15:15:22Z</time>
      </trkpt>
      <trkpt lat="48.40111" lon="2.54596">
        <ele>77</ele>
        <time>2016-05-17T15:17:22Z</time>
      </trkpt>
      <trkpt lat="48.40106" lon="2.54596">
        <ele>77</ele>
        <time>2016-05-17T15:19:22Z</time>
      </trkpt>
      <trkpt lat="48.401" lon="2.54596">
        <ele>76</ele>
        <time>2016-05-17T15:21:22Z</time>
      </trkpt>
      <trkpt lat="48.40096" lon="2.54593">
        <ele>76</ele>
        <time>2016-05-17T15:23:22Z</time>
      </trkpt>
      <trkpt lat="48.40095" lon="2.54586">
        <ele>76</ele>
        <time>2016-05-17T15:25:22Z</time>
      </trkpt>
      <trkpt lat="48.40091" lon="2.54583">
        <ele>75</ele>
        <time>2016-05-17T15:27:22Z</time>
      </trkpt>
      <trkpt lat="48.40084" lon="2.54601">
        <ele>75</ele>
        <time>2016-05-17T15:29:22Z</time>
      </trkpt>
      <trkpt lat="48.40081" lon="2.54609">
        <ele>75</ele>
        <time>2016-05-17T15:31:22Z</time>
      </trkpt>
      <trkpt lat="48.40079" lon="2.54621">
        <ele>75</ele>
        <time>2016-05-17T15:33:22Z</time>
      </trkpt>
      <trkpt lat="48.40072" lon="2.54613">
        <ele>75</ele>
        <time>2016-05-17T15:35:22Z</time>
      </trkpt>
      <trkpt lat="48.40065" lon="2.54598">
        <ele>75</ele>
        <time>2016-05-17T15:37:22Z</time>
      </trkpt>
      <trkpt lat="48.40058" lon="2.5459">
        <ele>75</ele>
        <time>2016-05-17T15:39:22Z</time>
      </trkpt>
      <trkpt lat="48.4005" lon="2.54584">
        <ele>75</ele>
        <time>2016-05-17T15:41:22Z</time>
      </trkpt>
      <trkpt lat="48.40039" lon="2.54575">
        <ele>76</ele>
        <time>2016-05-17T15:43:22Z</time>
      </trkpt>
      <trkpt lat="48.40032" lon="2.54565">
        <ele>76</ele>
        <time>2016-05-17T15:45:22Z</time>
      </trkpt>
      <trkpt lat="48.40027" lon="2.54553">
        <ele>76</ele>
        <time>2016-05-17T15:47:22Z</time>
      </trkpt>
      <trkpt lat="48.40022" lon="2.54539">
        <ele>76</ele>
        <time>2016-05-17T15:49:22Z</time>
      </trkpt>
      <trkpt lat="48.40014" lon="2.54524">
        <ele>76</ele>
        <time>2016-05-17T15:51:22Z</time>
      </trkpt>
      <trkpt lat="48.40007" lon="2.54513">
        <ele>77</ele>
        <time>2016-05-17T15:53:22Z</time>
      </trkpt>
      <trkpt lat="48.40011" lon="2.54476">
        <ele>77</ele>
        <time>2016-05-17T15:55:22Z</time>
      </trkpt>
      <trkpt lat="48.40015" lon="2.54452">
        <ele>77</ele>
        <time>2016-05-17T15:57:22Z</time>
      </trkpt>
      <trkpt lat="48.40017" lon="2.54437">
        <ele>77</ele>
        <time>2016-05-17T15:59:22Z</time>
      </trkpt>
      <trkpt lat="48.40017" lon="2.54417">
        <ele>77</ele>
        <time>2016-05-17T16:01:22Z</time>
      </trkpt>
      <trkpt lat="48.40019" lon="2.54372">
        <ele>79</ele>
        <time>2016-05-17T16:03:22Z</time>
      </trkpt>
      <trkpt lat="48.4002" lon="2.5435">
        <ele>79</ele>
        <time>2016-05-17T16:05:22Z</time>
      </trkpt>
      <trkpt lat="48.4002" lon="2.54323">
        <ele>80</ele>
        <time>2016-05-17T16:07:22Z</time>
      </trkpt>
      <trkpt lat="48.40021" lon="2.54301">
        <ele>81</ele>
        <time>2016-05-17T16:09:22Z</time>
      </trkpt>
      <trkpt lat="48.40025" lon="2.54273">
        <ele>82</ele>
        <time>2016-05-17T16:11:22Z</time>
      </trkpt>
      <trkpt lat="48.40029" lon="2.54253">
        <ele>83</ele>
        <time>2016-05-17T16:13:22Z</time>
      </trkpt>
      <trkpt lat="48.40031" lon="2.54236">
        <ele>85</ele>
        <time>2016-05-17T16:15:22Z</time>
      </trkpt>
      <trkpt lat="48.40033" lon="2.54213">
        <ele>87</ele>
        <time>2016-05-17T16:17:22Z</time>
      </trkpt>
      <trkpt lat="48.40035" lon="2.54192">
        <ele>89</ele>
        <time>2016-05-17T16:19:22Z</time>
      </trkpt>
      <trkpt lat="48.4004" lon="2.54176">
        <ele>90</ele>
        <time>2016-05-17T16:21:22Z</time>
      </trkpt>
      <trkpt lat="48.40049" lon="2.54175">
        <ele>91</ele>
        <time>2016-05-17T16:23:22Z</time>
      </trkpt>
      <trkpt lat="48.40071" lon="2.54169">
        <ele>92</ele>
        <time>2016-05-17T16:25:22Z</time>
      </trkpt>
      <trkpt lat="48.40096" lon="2.54158">
        <ele>93</ele>
        <time>2016-05-17T16:27:22Z</time>
      </trkpt>
      <trkpt lat="48.40111" lon="2.54164">
        <ele>92</ele>
        <time>2016-05-17T16:29:22Z</time>
      </trkpt>
      <trkpt lat="48.40143" lon="2.54157">
        <ele>91</ele>
        <time>2016-05-17T16:31:22Z</time>
      </trkpt>
      <trkpt lat="48.40157" lon="2.54159">
        <ele>90</ele>
        <time>2016-05-17T16:33:22Z</time>
      </trkpt>
      <trkpt lat="48.40188" lon="2.54169">
        <ele>89</ele>
        <time>2016-05-17T16:35:22Z</time>
      </trkpt>
      <trkpt lat="48.402" lon="2.54177">
        <ele>89</ele>
        <time>2016-05-17T16:37:22Z</time>
      </trkpt>
      <trkpt lat="48.40211" lon="2.54184">
        <ele>88</ele>
        <time>2016-05-17T16:39:22Z</time>
      </trkpt>
      <trkpt lat="48.40222" lon="2.54186">
        <ele>88</ele>
        <time>2016-05-17T16:41:22Z</time>
      </trkpt>
      <trkpt lat="48.40242" lon="2.54193">
        <ele>88</ele>
        <time>2016-05-17T16:43:22Z</time>
      </trkpt>
      <trkpt lat="48.40261" lon="2.542">
        <ele>88</ele>
        <time>2016-05-17T16:45:22Z</time>
      </trkpt>
      <trkpt lat="48.40304" lon="2.54217">
        <ele>88</ele>
        <time>2016-05-17T16:47:22Z</time>
      </trkpt>
      <trkpt lat="48.40337" lon="2.5423">
        <ele>88</ele>
        <time>2016-05-17T16:49:22Z</time>
      </trkpt>
      <trkpt lat="48.40348" lon="2.54231">
        <ele>89</ele>
        <time>2016-05-17T16:51:22Z</time>
      </trkpt>
      <trkpt lat="48.40353" lon="2.54224">
        <ele>90</ele>
        <time>2016-05-17T16:53:22Z</time>
      </trkpt>
      <trkpt lat="48.40361" lon="2.54208">
        <ele>91</ele>
        <time>2016-05-17T16:55:22Z</time>
      </trkpt>
      <trkpt lat="48.40368" lon="2.54193">
        <ele>91</ele>
        <time>2016-05-17T16:57:22Z</time>
      </trkpt>
      <trkpt lat="48.40374" lon="2.54187">
        <ele>92</ele>
        <time>2016-05-17T16:59:22Z</time>
      </trkpt>
      <trkpt lat="48.40386" lon="2.54187">
        <ele>93</ele>
        <time>2016-05-17T17:01:22Z</time>
      </trkpt>
      <trkpt lat="48.40408" lon="2.54197">
        <ele>95</ele>
        <time>2016-05-17T17:03:22Z</time>
      </trkpt>
      <trkpt lat="48.40426" lon="2.54203">
        <ele>96</ele>
        <time>2016-05-17T17:05:22Z</time>
      </trkpt>
      <trkpt lat="48.40435" lon="2.54201">
        <ele>96</ele>
        <time>2016-05-17T17:07:22Z</time>
      </trkpt>
      <trkpt lat="48.40454" lon="2.5419">
        <ele>96</ele>
        <time>2016-05-17T17:09:22Z</time>
      </trkpt>
      <trkpt lat="48.40463" lon="2.54192">
        <ele>96</ele>
        <time>2016-05-17T17:11:22Z</time>
      </trkpt>
      <trkpt lat="48.40471" lon="2.54206">
        <ele>96</ele>
        <time>2016-05-17T17:13:22Z</time>
      </trkpt>
      <trkpt lat="48.40481" lon="2.54211">
        <ele>96</ele>
        <time>2016-05-17T17:15:22Z</time>
      </trkpt>
      <trkpt lat="48.40489" lon="2.54207">
        <ele>96</ele>
        <time>2016-05-17T17:17:22Z</time>
      </trkpt>
      <trkpt lat="48.40497" lon="2.54196">
        <ele>96</ele>
        <time>2016-05-17T17:19:22Z</time>
      </trkpt>
      <trkpt lat="48.40507" lon="2.54191">
        <ele>95</ele>
        <time>2016-05-17T17:21:22Z</time>
      </trkpt>
      <trkpt lat="48.40524" lon="2.54179">
        <ele>92</ele>
        <time>2016-05-17T17:23:22Z</time>
      </trkpt>
      <trkpt lat="48.40531" lon="2.54162">
        <ele>91</ele>
        <time>2016-05-17T17:25:22Z</time>
      </trkpt>
      <trkpt lat="48.40537" lon="2.54152">
        <ele>90</ele>
        <time>2016-05-17T17:27:22Z</time>
      </trkpt>
      <trkpt lat="48.40549" lon="2.54141">
        <ele>88</ele>
        <time>2016-05-17T17:29:22Z</time>
      </trkpt>
      <trkpt lat="48.40557" lon="2.54142">
        <ele>87</ele>
        <time>2016-05-17T17:31:22Z</time>
      </trkpt>
      <trkpt lat="48.40575" lon="2.54143">
        <ele>84</ele>
        <time>2016-05-17T17:33:22Z</time>
      </trkpt>
      <trkpt lat="48.40591" lon="2.54149">
        <ele>82</ele>
        <time>2016-05-17T17:35:22Z</time>
      </trkpt>
      <trkpt lat="48.40608" lon="2.54148">
        <ele>81</ele>
        <time>2016-05-17T17:37:22Z</time>
      </trkpt>
      <trkpt lat="48.40617" lon="2.54149">
        <ele>81</ele>
        <time>2016-05-17T17:39:22Z</time>
      </trkpt>
      <trkpt lat="48.40621" lon="2.54213">
        <ele>81</ele>
        <time>2016-05-17T17:41:22Z</time>
      </trkpt>
      <trkpt lat="48.40624" lon="2.54235">
        <ele>81</ele>
        <time>2016-05-17T17:43:22Z</time>
      </trkpt>
      <trkpt lat="48.40627" lon="2.54258">
        <ele>81</ele>
        <time>2016-05-17T17:45:22Z</time>
      </trkpt>
      <trkpt lat="48.40631" lon="2.54273">
        <ele>80</ele>
        <time>2016-05-17T17:47:22Z</time>
      </trkpt>
      <trkpt lat="48.40638" lon="2.54305">
        <ele>81</ele>
        <time>2016-05-17T17:49:22Z</time>
      </trkpt>
      <trkpt lat="48.40644" lon="2.54333">
        <ele>81</ele>
        <time>2016-05-17T17:51:22Z</time>
      </trkpt>
      <trkpt lat="48.40656" lon="2.54362">
        <ele>81</ele>
        <time>2016-05-17T17:53:22Z</time>
      </trkpt>
      <trkpt lat="48.40665" lon="2.54385">
        <ele>82</ele>
        <time>2016-05-17T17:55:22Z</time>
      </trkpt>
      <trkpt lat="48.40669" lon="2.54405">
        <ele>83</ele>
        <time>2016-05-17T17:57:22Z</time>
      </trkpt>
      <trkpt lat="48.40675" lon="2.54437">
        <ele>83</ele>
        <time>2016-05-17T17:59:22Z</time>
      </trkpt>
      <trkpt lat="48.40677" lon="2.54463">
        <ele>82</ele>
        <time>2016-05-17T18:01:22Z</time>
      </trkpt>
      <trkpt lat="48.40676" lon="2.54489">
        <ele>82</ele>
        <time>2016-05-17T18:03:22Z</time>
      </trkpt>
      <trkpt lat="48.40675" lon="2.54516">
        <ele>81</ele>
        <time>2016-05-17T18:05:22Z</time>
      </trkpt>
      <trkpt lat="48.40674" lon="2.54537">
        <ele>81</ele>
        <time>2016-05-17T18:07:22Z</time>
      </trkpt>
      <trkpt lat="48.40676" lon="2.54559">
        <ele>80</ele>
        <time>2016-05-17T18:09:22Z</time>
      </trkpt>
      <trkpt lat="48.40678" lon="2.54585">
        <ele>80</ele>
        <time>2016-05-17T18:11:22Z</time>
      </trkpt>
      <trkpt lat="48.40676" lon="2.546">
        <ele>79</ele>
        <time>2016-05-17T18:13:22Z</time>
      </trkpt>
      <trkpt lat="48.40673" lon="2.54617">
        <ele>79</ele>
        <time>2016-05-17T18:15:22Z</time>
      </trkpt>
      <trkpt lat="48.40664" lon="2.54642">
        <ele>79</ele>
        <time>2016-05-17T18:17:22Z</time>
      </trkpt>
      <trkpt lat="48.40655" lon="2.54667">
        <ele>80</ele>
        <time>2016-05-17T18:19:22Z</time>
      </trkpt>
      <trkpt lat="48.40651" lon="2.54689">
        <ele>80</ele>
        <time>2016-05-17T18:21:22Z</time>
      </trkpt>
      <trkpt lat="48.40652" lon="2.54702">
        <ele>80</ele>
        <time>2016-05-17T18:23:22Z</time>
      </trkpt>
      <trkpt lat="48.40653" lon="2.54717">
        <ele>80</ele>
        <time>2016-05-17T18:25:22Z</time>
      </trkpt>
      <trkpt lat="48.40653" lon="2.54723">
        <ele>80</ele>
        <time>2016-05-17T18:27:22Z</time>
      </trkpt>
      <trkpt lat="48.40824" lon="2.54787">
        <ele>76</ele>
        <time>2016-05-17T18:29:22Z</time>
      </trkpt>
      <trkpt lat="48.41008" lon="2.54871">
        <ele>77</ele>
        <time>2016-05-17T18:31:22Z</time>
      </trkpt>
      <trkpt lat="48.41036" lon="2.54869">
        <ele>77</ele>
        <time>2016-05-17T18:33:22Z</time>
      </trkpt>
      <trkpt lat="48.41043" lon="2.54866">
        <ele>77</ele>
        <time>2016-05-17T18:35:22Z</time>
      </trkpt>
      <trkpt lat="48.41052" lon="2.5485">
        <ele>77</ele>
        <time>2016-05-17T18:37:22Z</time>
      </trkpt>
      <trkpt lat="48.41061" lon="2.54829">
        <ele>78</ele>
        <time>2016-05-17T18:39:22Z</time>
      </trkpt>
      <trkpt lat="48.41068" lon="2.54823">
        <ele>78</ele>
        <time>2016-05-17T18:41:22Z</time>
      </trkpt>
      <trkpt lat="48.41079" lon="2.54814">
        <ele>78</ele>
        <time>2016-05-17T18:43:22Z</time>
      </trkpt>
      <trkpt lat="48.41063" lon="2.548">
        <ele>78</ele>
        <time>2016-05-17T18:45:22Z</time>
      </trkpt>
      <trkpt lat="48.41051" lon="2.54781">
        <ele>79</ele>
        <time>2016-05-17T18:47:22Z</time>
      </trkpt>
      <trkpt lat="48.41045" lon="2.54767">
        <ele>79</ele>
        <time>2016-05-17T18:49:22Z</time>
      </trkpt>
      <trkpt lat="48.41033" lon="2.54744">
        <ele>79</ele>
        <time>2016-05-17T18:51:22Z</time>
      </trkpt>
      <trkpt lat="48.41023" lon="2.54729">
        <ele>79</ele>
        <time>2016-05-17T18:53:22Z</time>
      </trkpt>
      <trkpt lat="48.41009" lon="2.54705">
        <ele>79</ele>
        <time>2016-05-17T18:55:22Z</time>
      </trkpt>
      <trkpt lat="48.40994" lon="2.54683">
        <ele>79</ele>
        <time>2016-05-17T18:57:22Z</time>
      </trkpt>
      <trkpt lat="48.40978" lon="2.54659">
        <ele>78</ele>
        <time>2016-05-17T18:59:22Z</time>
      </trkpt>
      <trkpt lat="48.40962" lon="2.5464">
        <ele>78</ele>
        <time>2016-05-17T19:01:22Z</time>
      </trkpt>
      <trkpt lat="48.40935" lon="2.54596">
        <ele>77</ele>
        <time>2016-05-17T19:03:22Z</time>
      </trkpt>
      <trkpt lat="48.40886" lon="2.54509">
        <ele>75</ele>
        <time>2016-05-17T19:05:22Z</time>
      </trkpt>
      <trkpt lat="48.40865" lon="2.5447">
        <ele>75</ele>
        <time>2016-05-17T19:07:22Z</time>
      </trkpt>
      <trkpt lat="48.40843" lon="2.54431">
        <ele>75</ele>
        <time>2016-05-17T19:09:22Z</time>
      </trkpt>
      <trkpt lat="48.40837" lon="2.54417">
        <ele>75</ele>
        <time>2016-05-17T19:11:22Z</time>
      </trkpt>
      <trkpt lat="48.4083" lon="2.54405">
        <ele>75</ele>
        <time>2016-05-17T19:13:22Z</time>
      </trkpt>
      <trkpt lat="48.40828" lon="2.54393">
        <ele>75</ele>
        <time>2016-05-17T19:15:22Z</time>
      </trkpt>
      <trkpt lat="48.40828" lon="2.5438">
        <ele>75</ele>
        <time>2016-05-17T19:17:22Z</time>
      </trkpt>
      <trkpt lat="48.40836" lon="2.54355">
        <ele>76</ele>
        <time>2016-05-17T19:19:22Z</time>
      </trkpt>
      <trkpt lat="48.40837" lon="2.54343">
        <ele>76</ele>
        <time>2016-05-17T19:21:22Z</time>
      </trkpt>
      <trkpt lat="48.40835" lon="2.5433">
        <ele>76</ele>
        <time>2016-05-17T19:23:22Z</time>
      </trkpt>
      <trkpt lat="48.40832" lon="2.54309">
        <ele>76</ele>
        <time>2016-05-17T19:25:22Z</time>
      </trkpt>
      <trkpt lat="48.4082" lon="2.5428">
        <ele>76</ele>
        <time>2016-05-17T19:27:22Z</time>
      </trkpt>
      <trkpt lat="48.40795" lon="2.54217">
        <ele>76</ele>
        <time>2016-05-17T19:29:22Z</time>
      </trkpt>
      <trkpt lat="48.40771" lon="2.54149">
        <ele>76</ele>
        <time>2016-05-17T19:31:22Z</time>
      </trkpt>
      <trkpt lat="48.4076" lon="2.54103">
        <ele>76</ele>
        <time>2016-05-17T19:33:22Z</time>
      </trkpt>
      <trkpt lat="48.40751" lon="2.54063">
        <ele>77</ele>
        <time>2016-05-17T19:35:22Z</time>
      </trkpt>
      <trkpt lat="48.40797" lon="2.54032">
        <ele>78</ele>
        <time>2016-05-17T19:37:22Z</time>
      </trkpt>
      <trkpt lat="48.40821" lon="2.54017">
        <ele>78</ele>
        <time>2016-05-17T19:39:22Z</time>
      </trkpt>
      <trkpt lat="48.40845" lon="2.54002">
        <ele>78</ele>
        <time>2016-05-17T19:41:22Z</time>
      </trkpt>
      <trkpt lat="48.40869" lon="2.5399">
        <ele>79</ele>
        <time>2016-05-17T19:43:22Z</time>
      </trkpt>
      <trkpt lat="48.40893" lon="2.53981">
        <ele>79</ele>
        <time>2016-05-17T19:45:22Z</time>
      </trkpt>
      <trkpt lat="48.40913" lon="2.53976">
        <ele>79</ele>
        <time>2016-05-17T19:47:22Z</time>
      </trkpt>
      <trkpt lat="48.40933" lon="2.53973">
        <ele>79</ele>
        <time>2016-05-17T19:49:22Z</time>
      </trkpt>
      <trkpt lat="48.40957" lon="2.5397">
        <ele>79</ele>
        <time>2016-05-17T19:51:22Z</time>
      </trkpt>
      <trkpt lat="48.41033" lon="2.53952">
        <ele>78</ele>
        <time>2016-05-17T19:53:22Z</time>
      </trkpt>
      <trkpt lat="48.4107" lon="2.5394">
        <ele>78</ele>
        <time>2016-05-17T19:55:22Z</time>
      </trkpt>
      <trkpt lat="48.41081" lon="2.53936">
        <ele>78</ele>
        <time>2016-05-17T19:57:22Z</time>
      </trkpt>
      <trkpt lat="48.41091" lon="2.53923">
        <ele>79</ele>
        <time>2016-05-17T19:59:22Z</time>
      </trkpt>
      <trkpt lat="48.411" lon="2.53911">
        <ele>79</ele>
        <time>2016-05-17T20:01:22Z</time>
      </trkpt>
      <trkpt lat="48.41108" lon="2.539">
        <ele>79</ele>
        <time>2016-05-17T20:03:22Z</time>
      </trkpt>
      <trkpt lat="48.41119" lon="2.53894">
        <ele>79</ele>
        <time>2016-05-17T20:05:22Z</time>
      </trkpt>
      <trkpt lat="48.41132" lon="2.53891">
        <ele>80</ele>
        <time>2016-05-17T20:07:22Z</time>
      </trkpt>
      <trkpt lat="48.41135" lon="2.53862">
        <ele>79</ele>
        <time>2016-05-17T20:09:22Z</time>
      </trkpt>
      <trkpt lat="48.41133" lon="2.53842">
        <ele>78</ele>
        <time>2016-05-17T20:11:22Z</time>
      </trkpt>
      <trkpt lat="48.41125" lon="2.53806">
        <ele>78</ele>
        <time>2016-05-17T20:13:22Z</time>
      </trkpt>
      <trkpt lat="48.41122" lon="2.53784">
        <ele>78</ele>
        <time>2016-05-17T20:15:22Z</time>
      </trkpt>
      <trkpt lat="48.41119" lon="2.53743">
        <ele>78</ele>
        <time>2016-05-17T20:17:22Z</time>
      </trkpt>
      <trkpt lat="48.41108" lon="2.53707">
        <ele>78</ele>
        <time>2016-05-17T20:19:22Z</time>
      </trkpt>
      <trkpt lat="48.41103" lon="2.53688">
        <ele>78</ele>
        <time>2016-05-17T20:21:22Z</time>
      </trkpt>
      <trkpt lat="48.41103" lon="2.53661">
        <ele>78</ele>
        <time>2016-05-17T20:23:22Z</time>
      </trkpt>
      <trkpt lat="48.41107" lon="2.53629">
        <ele>77</ele>
        <time>2016-05-17T20:25:22Z</time>
      </trkpt>
      <trkpt lat="48.41112" lon="2.5356">
        <ele>76</ele>
        <time>2016-05-17T20:27:22Z</time>
      </trkpt>
      <trkpt lat="48.41119" lon="2.53499">
        <ele>77</ele>
        <time>2016-05-17T20:29:22Z</time>
      </trkpt>
      <trkpt lat="48.41112" lon="2.53442">
        <ele>78</ele>
        <time>2016-05-17T20:31:22Z</time>
      </trkpt>
      <trkpt lat="48.41108" lon="2.5339">
        <ele>79</ele>
        <time>2016-05-17T20:33:22Z</time>
      </trkpt>
      <trkpt lat="48.41107" lon="2.53366">
        <ele>79</ele>
        <time>2016-05-17T20:35:22Z</time>
      </trkpt>
      <trkpt lat="48.41108" lon="2.53327">
        <ele>79</ele>
        <time>2016-05-17T20:37:22Z</time>
      </trkpt>
      <trkpt lat="48.41111" lon="2.53291">
        <ele>79</ele>
        <time>2016-05-17T20:39:22Z</time>
      </trkpt>
      <trkpt lat="48.41121" lon="2.53241">
        <ele>78</ele>
        <time>2016-05-17T20:41:22Z</time>
      </trkpt>
      <trkpt lat="48.41126" lon="2.53223">
        <ele>78</ele>
        <time>2016-05-17T20:43:22Z</time>
      </trkpt>
      <trkpt lat="48.41134" lon="2.53193">
        <ele>78</ele>
        <time>2016-05-17T20:45:22Z</time>
      </trkpt>
      <trkpt lat="48.41137" lon="2.5317">
        <ele>77</ele>
        <time>2016-05-17T20:47:22Z</time>
      </trkpt>
      <trkpt lat="48.41145" lon="2.53139">
        <ele>77</ele>
        <time>2016-05-17T20:49:22Z</time>
      </trkpt>
      <trkpt lat="48.4115" lon="2.53116">
        <ele>76</ele>
        <time>2016-05-17T20:51:22Z</time>
      </trkpt>
      <trkpt lat="48.41158" lon="2.53109">
        <ele>76</ele>
        <time>2016-05-17T20:53:22Z</time>
      </trkpt>
      <trkpt lat="48.41169" lon="2.53074">
        <ele>76</ele>
        <time>2016-05-17T20:55:22Z</time>
      </trkpt>
      <trkpt lat="48.41175" lon="2.53044">
        <ele>77</ele>
        <time>2016-05-17T20:57:22Z</time>
      </trkpt>
      <trkpt lat="48.41174" lon="2.53026">
        <ele>78</ele>
        <time>2016-05-17T20:59:22Z</time>
      </trkpt>
      <trkpt lat="48.41173" lon="2.52989">
        <ele>78</ele>
        <time>2016-05-17T21:01:22Z</time>
      </trkpt>
      <trkpt lat="48.41169" lon="2.52958">
        <ele>78</ele>
        <time>2016-05-17T21:03:22Z</time>
      </trkpt>
      <trkpt lat="48.41166" lon="2.52928">
        <ele>78</ele>
        <time>2016-05-17T21:05:22Z</time>
      </trkpt>
      <trkpt lat="48.41152" lon="2.52851">
        <ele>80</ele>
        <time>2016-05-17T21:07:22Z</time>
      </trkpt>
      <trkpt lat="48.41137" lon="2.52854">
        <ele>80</ele>
        <time>2016-05-17T21:09:22Z</time>
      </trkpt>
      <trkpt lat="48.41119" lon="2.52855">
        <ele>79</ele>
        <time>2016-05-17T21:11:22Z</time>
      </trkpt>
      <trkpt lat="48.41103" lon="2.5284">
        <ele>79</ele>
        <time>2016-05-17T21:13:22Z</time>
      </trkpt>
      <trkpt lat="48.41086" lon="2.52835">
        <ele>79</ele>
        <time>2016-05-17T21:15:22Z</time>
      </trkpt>
      <trkpt lat="48.41068" lon="2.52831">
        <ele>79</ele>
        <time>2016-05-17T21:17:22Z</time>
      </trkpt>
      <trkpt lat="48.41054" lon="2.52833">
        <ele>79</ele>
        <time>2016-05-17T21:19:22Z</time>
      </trkpt>
      <trkpt lat="48.41038" lon="2.5284">
        <ele>80</ele>
        <time>2016-05-17T21:21:22Z</time>
      </trkpt>
      <trkpt lat="48.4103" lon="2.52855">
        <ele>80</ele>
        <time>2016-05-17T21:23:22Z</time>
      </trkpt>
      <trkpt lat="48.41023" lon="2.52865">
        <ele>80</ele>
        <time>2016-05-17T21:25:22Z</time>
      </trkpt>
      <trkpt lat="48.41004" lon="2.52868">
        <ele>80</ele>
        <time>2016-05-17T21:27:22Z</time>
      </trkpt>
      <trkpt lat="48.40983" lon="2.52873">
        <ele>80</ele>
        <time>2016-05-17T21:29:22Z</time>
      </trkpt>
      <trkpt lat="48.40969" lon="2.52874">
        <ele>80</ele>
        <time>2016-05-17T21:31:22Z</time>
      </trkpt>
      <trkpt lat="48.40954" lon="2.52872">
        <ele>80</ele>
        <time>2016-05-17T21:33:22Z</time>
      </trkpt>
      <trkpt lat="48.40936" lon="2.52868">
        <ele>80</ele>
        <time>2016-05-17T21:35:22Z</time>
      </trkpt>
      <trkpt lat="48.40931" lon="2.52854">
        <ele>79</ele>
        <time>2016-05-17T21:37:22Z</time>
      </trkpt>
      <trkpt lat="48.40931" lon="2.52845">
        <ele>79</ele>
        <time>2016-05-17T21:39:22Z</time>
      </trkpt>
      <trkpt lat="48.40929" lon="2.52811">
        <ele>79</ele>
        <time>2016-05-17T21:41:22Z</time>
      </trkpt>
      <trkpt lat="48.40914" lon="2.52764">
        <ele>78</ele>
        <time>2016-05-17T21:43:22Z</time>
      </trkpt>
      <trkpt lat="48.40907" lon="2.5276">
        <ele>79</ele>
        <time>2016-05-17T21:45:22Z</time>
      </trkpt>
      <trkpt lat="48.40899" lon="2.52751">
        <ele>79</ele>
        <time>2016-05-17T21:47:22Z</time>
      </trkpt>
      <trkpt lat="48.4089" lon="2.52694">
        <ele>81</ele>
        <time>2016-05-17T21:49:22Z</time>
      </trkpt>
      <trkpt lat="48.40887" lon="2.52669">
        <ele>82</ele>
        <time>2016-05-17T21:51:22Z</time>
      </trkpt>
      <trkpt lat="48.40895" lon="2.5263">
        <ele>82</ele>
        <time>2016-05-17T21:53:22Z</time>
      </trkpt>
      <trkpt lat="48.40896" lon="2.5262">
        <ele>82</ele>
        <time>2016-05-17T21:55:22Z</time>
      </trkpt>
      <trkpt lat="48.40901" lon="2.52584">
        <ele>82</ele>
        <time>2016-05-17T21:57:22Z</time>
      </trkpt>
      <trkpt lat="48.40904" lon="2.52564">
        <ele>82</ele>
        <time>2016-05-17T21:59:22Z</time>
      </trkpt>
      <trkpt lat="48.4091" lon="2.5254">
        <ele>80</ele>
        <time>2016-05-17T22:01:22Z</time>
      </trkpt>
      <trkpt lat="48.40919" lon="2.52516">
        <ele>79</ele>
        <time>2016-05-17T22:03:22Z</time>
      </trkpt>
      <trkpt lat="48.40923" lon="2.52486">
        <ele>79</ele>
        <time>2016-05-17T22:05:22Z</time>
      </trkpt>
      <trkpt lat="48.40928" lon="2.5245">
        <ele>80</ele>
        <time>2016-05-17T22:07:22Z</time>
      </trkpt>
      <trkpt lat="48.40934" lon="2.52431">
        <ele>81</ele>
        <time>2016-05-17T22:09:22Z</time>
      </trkpt>
      <trkpt lat="48.40939" lon="2.52389">
        <ele>81</ele>
        <time>2016-05-17T22:11:22Z</time>
      </trkpt>
      <trkpt lat="48.40948" lon="2.52325">
        <ele>83</ele>
        <time>2016-05-17T22:13:22Z</time>
      </trkpt>
      <trkpt lat="48.40957" lon="2.52275">
        <ele>85</ele>
        <time>2016-05-17T22:15:22Z</time>
      </trkpt>
      <trkpt lat="48.40968" lon="2.52213">
        <ele>86</ele>
        <time>2016-05-17T22:17:22Z</time>
      </trkpt>
      <trkpt lat="48.40978" lon="2.52157">
        <ele>85</ele>
        <time>2016-05-17T22:19:22Z</time>
      </trkpt>
      <trkpt lat="48.4098" lon="2.52132">
        <ele>85</ele>
        <time>2016-05-17T22:21:22Z</time>
      </trkpt>
      <trkpt lat="48.40987" lon="2.52097">
        <ele>84</ele>
        <time>2016-05-17T22:23:22Z</time>
      </trkpt>
      <trkpt lat="48.40989" lon="2.52073">
        <ele>85</ele>
        <time>2016-05-17T22:25:22Z</time>
      </trkpt>
      <trkpt lat="48.40999" lon="2.5203">
        <ele>84</ele>
        <time>2016-05-17T22:27:22Z</time>
      </trkpt>
      <trkpt lat="48.41" lon="2.52008">
        <ele>84</ele>
        <time>2016-05-17T22:29:22Z</time>
      </trkpt>
      <trkpt lat="48.41009" lon="2.51966">
        <ele>85</ele>
        <time>2016-05-17T22:31:22Z</time>
      </trkpt>
      <trkpt lat="48.41018" lon="2.51899">
        <ele>86</ele>
        <time>2016-05-17T22:33:22Z</time>
      </trkpt>
      <trkpt lat="48.41019" lon="2.51878">
        <ele>87</ele>
        <time>2016-05-17T22:35:22Z</time>
      </trkpt>
      <trkpt lat="48.41025" lon="2.51844">
        <ele>89</ele>
        <time>2016-05-17T22:37:22Z</time>
      </trkpt>
      <trkpt lat="48.41032" lon="2.51809">
        <ele>90</ele>
        <time>2016-05-17T22:39:22Z</time>
      </trkpt>
      <trkpt lat="48.41043" lon="2.5174">
        <ele>92</ele>
        <time>2016-05-17T22:41:22Z</time>
      </trkpt>
      <trkpt lat="48.41044" lon="2.51725">
        <ele>92</ele>
        <time>2016-05-17T22:43:22Z</time>
      </trkpt>
      <trkpt lat="48.41045" lon="2.51703">
        <ele>92</ele>
        <time>2016-05-17T22:45:22Z</time>
      </trkpt>
      <trkpt lat="48.4104" lon="2.51627">
        <ele>95</ele>
        <time>2016-05-17T22:47:22Z</time>
      </trkpt>
      <trkpt lat="48.41041" lon="2.51608">
        <ele>96</ele>
        <time>2016-05-17T22:49:22Z</time>
      </trkpt>
      <trkpt lat="48.41043" lon="2.51586">
        <ele>96</ele>
        <time>2016-05-17T22:51:22Z</time>
      </trkpt>
      <trkpt lat="48.41048" lon="2.51559">
        <ele>96</ele>
        <time>2016-05-17T22:53:22Z</time>
      </trkpt>
      <trkpt lat="48.4105" lon="2.51542">
        <ele>96</ele>
        <time>2016-05-17T22:55:22Z</time>
      </trkpt>
      <trkpt lat="48.41035" lon="2.51535">
        <ele>98</ele>
        <time>2016-05-17T22:57:22Z</time>
      </trkpt>
      <trkpt lat="48.41028" lon="2.51528">
        <ele>99</ele>
        <time>2016-05-17T22:59:22Z</time>
      </trkpt>
      <trkpt lat="48.41015" lon="2.51513">
        <ele>101</ele>
        <time>2016-05-17T23:01:22Z</time>
      </trkpt>
      <trkpt lat="48.41005" lon="2.51505">
        <ele>102</ele>
        <time>2016-05-17T23:03:22Z</time>
      </trkpt>
      <trkpt lat="48.40989" lon="2.51501">
        <ele>103</ele>
        <time>2016-05-17T23:05:22Z</time>
      </trkpt>
      <trkpt lat="48.4097" lon="2.51493">
        <ele>104</ele>
        <time>2016-05-17T23:07:22Z</time>
      </trkpt>
      <trkpt lat="48.4095" lon="2.51488">
        <ele>104</ele>
        <time>2016-05-17T23:09:22Z</time>
      </trkpt>
      <trkpt lat="48.40933" lon="2.5149">
        <ele>104</ele>
        <time>2016-05-17T23:11:22Z</time>
      </trkpt>
      <trkpt lat="48.4093" lon="2.51517">
        <ele>105</ele>
        <time>2016-05-17T23:13:22Z</time>
      </trkpt>
      <trkpt lat="48.4093" lon="2.5153">
        <ele>106</ele>
        <time>2016-05-17T23:15:22Z</time>
      </trkpt>
      <trkpt lat="48.40932" lon="2.51546">
        <ele>107</ele>
        <time>2016-05-17T23:17:22Z</time>
      </trkpt>
      <trkpt lat="48.40934" lon="2.51564">
        <ele>108</ele>
        <time>2016-05-17T23:19:22Z</time>
      </trkpt>
      <trkpt lat="48.40936" lon="2.51581">
        <ele>109</ele>
        <time>2016-05-17T23:21:22Z</time>
      </trkpt>
      <trkpt lat="48.40936" lon="2.51596">
        <ele>110</ele>
        <time>2016-05-17T23:23:22Z</time>
      </trkpt>
      <trkpt lat="48.40936" lon="2.51612">
        <ele>111</ele>
        <time>2016-05-17T23:25:22Z</time>
      </trkpt>
      <trkpt lat="48.40936" lon="2.51631">
        <ele>112</ele>
        <time>2016-05-17T23:27:22Z</time>
      </trkpt>
      <trkpt lat="48.40936" lon="2.51645">
        <ele>113</ele>
        <time>2016-05-17T23:29:22Z</time>
      </trkpt>
      <trkpt lat="48.40936" lon="2.51657">
        <ele>114</ele>
        <time>2016-05-17T23:31:22Z</time>
      </trkpt>
      <trkpt lat="48.40937" lon="2.51671">
        <ele>114</ele>
        <time>2016-05-17T23:33:22Z</time>
      </trkpt>
      <trkpt lat="48.40938" lon="2.51686">
        <ele>114</ele>
        <time>2016-05-17T23:35:22Z</time>
      </trkpt>
      <trkpt lat="48.40936" lon="2.51698">
        <ele>114</ele>
        <time>2016-05-17T23:37:22Z</time>
      </trkpt>
      <trkpt lat="48.40932" lon="2.51709">
        <ele>115</ele>
        <time>2016-05-17T23:39:22Z</time>
      </trkpt>
      <trkpt lat="48.40927" lon="2.51719">
        <ele>116</ele>
        <time>2016-05-17T23:41:22Z</time>
      </trkpt>
      <trkpt lat="48.40919" lon="2.5173">
        <ele>118</ele>
        <time>2016-05-17T23:43:22Z</time>
      </trkpt>
      <trkpt lat="48.40909" lon="2.5175">
        <ele>118</ele>
        <time>2016-05-17T23:45:22Z</time>
      </trkpt>
      <trkpt lat="48.40892" lon="2.51778">
        <ele>113</ele>
        <time>2016-05-17T23:47:22Z</time>
      </trkpt>
      <trkpt lat="48.40862" lon="2.51845">
        <ele>103</ele>
        <time>2016-05-17T23:49:22Z</time>
      </trkpt>
      <trkpt lat="48.40853" lon="2.51859">
        <ele>102</ele>
        <time>2016-05-17T23:51:22Z</time>
      </trkpt>
      <trkpt lat="48.40851" lon="2.51871">
        <ele>102</ele>
        <time>2016-05-17T23:53:22Z</time>
      </trkpt>
      <trkpt lat="48.4085" lon="2.51886">
        <ele>101</ele>
        <time>2016-05-17T23:55:22Z</time>
      </trkpt>
      <trkpt lat="48.40845" lon="2.51895">
        <ele>100</ele>
        <time>2016-05-17T23:57:22Z</time>
      </trkpt>
      <trkpt lat="48.40836" lon="2.51898">
        <ele>100</ele>
        <time>2016-05-17T23:59:22Z</time>
      </trkpt>
      <trkpt lat="48.4083" lon="2.51892">
        <ele>100</ele>
        <time>2016-05-18T00:01:22Z</time>
      </trkpt>
      <trkpt lat="48.40822" lon="2.51889">
        <ele>98</ele>
        <time>2016-05-18T00:03:22Z</time>
      </trkpt>
      <trkpt lat="48.40813" lon="2.5189">
        <ele>96</ele>
        <time>2016-05-18T00:05:22Z</time>
      </trkpt>
      <trkpt lat="48.40801" lon="2.51897">
        <ele>94</ele>
        <time>2016-05-18T00:07:22Z</time>
      </trkpt>
      <trkpt lat="48.40793" lon="2.51908">
        <ele>92</ele>
        <time>2016-05-18T00:09:22Z</time>
      </trkpt>
      <trkpt lat="48.40788" lon="2.5192">
        <ele>90</ele>
        <time>2016-05-18T00:11:22Z</time>
      </trkpt>
      <trkpt lat="48.40782" lon="2.51933">
        <ele>90</ele>
        <time>2016-05-18T00:13:22Z</time>
      </trkpt>
      <trkpt lat="48.40775" lon="2.5194">
        <ele>89</ele>
        <time>2016-05-18T00:15:22Z</time>
      </trkpt>
      <trkpt lat="48.40769" lon="2.51951">
        <ele>88</ele>
        <time>2016-05-18T00:17:22Z</time>
      </trkpt>
      <trkpt lat="48.40749" lon="2.51952">
        <ele>83</ele>
        <time>2016-05-18T00:19:22Z</time>
      </trkpt>
      <trkpt lat="48.40741" lon="2.5194">
        <ele>82</ele>
        <time>2016-05-18T00:21:22Z</time>
      </trkpt>
      <trkpt lat="48.40738" lon="2.5193">
        <ele>82</ele>
        <time>2016-05-18T00:23:22Z</time>
      </trkpt>
      <trkpt lat="48.4073" lon="2.51914">
        <ele>81</ele>
        <time>2016-05-18T00:25:22Z</time>
      </trkpt>
      <trkpt lat="48.40722" lon="2.51898">
        <ele>81</ele>
        <time>2016-05-18T00:27:22Z</time>
      </trkpt>
      <trkpt lat="48.40712" lon="2.51893">
        <ele>80</ele>
        <time>2016-05-18T00:29:22Z</time>
      </trkpt>
      <trkpt lat="48.40683" lon="2.51884">
        <ele>78</ele>
        <time>2016-05-18T00:31:22Z</time>
      </trkpt>
      <trkpt lat="48.40689" lon="2.51911">
        <ele>78</ele>
        <time>2016-05-18T00:33:22Z</time>
      </trkpt>
      <trkpt lat="48.40683" lon="2.51976">
        <ele>77</ele>
        <time>2016-05-18T00:35:22Z</time>
      </trkpt>
      <trkpt lat="48.40672" lon="2.52027">
        <ele>76</ele>
        <time>2016-05-18T00:37:22Z</time>
      </trkpt>
      <trkpt lat="48.40671" lon="2.52068">
        <ele>76</ele>
        <time>2016-05-18T00:39:22Z</time>
      </trkpt>
      <trkpt lat="48.40666" lon="2.52097">
        <ele>76</ele>
        <time>2016-05-18T00:41:22Z</time>
      </trkpt>
      <trkpt lat="48.40671" lon="2.52156">
        <ele>80</ele>
        <time>2016-05-18T00:43:22Z</time>
      </trkpt>
      <trkpt lat="48.40674" lon="2.52187">
        <ele>81</ele>
        <time>2016-05-18T00:45:22Z</time>
      </trkpt>
      <trkpt lat="48.40681" lon="2.522">
        <ele>83</ele>
        <time>2016-05-18T00:47:22Z</time>
      </trkpt>
      <trkpt lat="48.40688" lon="2.52209">
        <ele>85</ele>
        <time>2016-05-18T00:49:22Z</time>
      </trkpt>
      <trkpt lat="48.40694" lon="2.52214">
        <ele>86</ele>
        <time>2016-05-18T00:51:22Z</time>
      </trkpt>
      <trkpt lat="48.407" lon="2.52218">
        <ele>88</ele>
        <time>2016-05-18T00:53:22Z</time>
      </trkpt>
      <trkpt lat="48.40707" lon="2.52234">
        <ele>89</ele>
        <time>2016-05-18T00:55:22Z</time>
      </trkpt>
      <trkpt lat="48.40714" lon="2.52248">
        <ele>91</ele>
        <time>2016-05-18T00:57:22Z</time>
      </trkpt>
      <trkpt lat="48.40724" lon="2.52248">
        <ele>93</ele>
        <time>2016-05-18T00:59:22Z</time>
      </trkpt>
      <trkpt lat="48.40736" lon="2.52249">
        <ele>95</ele>
        <time>2016-05-18T01:01:22Z</time>
      </trkpt>
      <trkpt lat="48.4074" lon="2.52259">
        <ele>97</ele>
        <time>2016-05-18T01:03:22Z</time>
      </trkpt>
      <trkpt lat="48.40743" lon="2.52271">
        <ele>98</ele>
        <time>2016-05-18T01:05:22Z</time>
      </trkpt>
      <trkpt lat="48.40745" lon="2.52285">
        <ele>99</ele>
        <time>2016-05-18T01:07:22Z</time>
      </trkpt>
      <trkpt lat="48.40744" lon="2.52297">
        <ele>99</ele>
        <time>2016-05-18T01:09:22Z</time>
      </trkpt>
      <trkpt lat="48.4074" lon="2.52316">
        <ele>99</ele>
        <time>2016-05-18T01:11:22Z</time>
      </trkpt>
      <trkpt lat="48.40734" lon="2.52341">
        <ele>100</ele>
        <time>2016-05-18T01:13:22Z</time>
      </trkpt>
      <trkpt lat="48.40732" lon="2.52355">
        <ele>100</ele>
        <time>2016-05-18T01:15:22Z</time>
      </trkpt>
      <trkpt lat="48.40719" lon="2.52371">
        <ele>99</ele>
        <time>2016-05-18T01:17:22Z</time>
      </trkpt>
      <trkpt lat="48.4071" lon="2.52383">
        <ele>98</ele>
        <time>2016-05-18T01:19:22Z</time>
      </trkpt>
      <trkpt lat="48.40706" lon="2.52396">
        <ele>98</ele>
        <time>2016-05-18T01:21:22Z</time>
      </trkpt>
      <trkpt lat="48.40698" lon="2.52416">
        <ele>98</ele>
        <time>2016-05-18T01:23:22Z</time>
      </trkpt>
      <trkpt lat="48.40697" lon="2.52427">
        <ele>98</ele>
        <time>2016-05-18T01:25:22Z</time>
      </trkpt>
      <trkpt lat="48.40697" lon="2.52436">
        <ele>99</ele>
        <time>2016-05-18T01:27:22Z</time>
      </trkpt>
      <trkpt lat="48.40695" lon="2.52449">
        <ele>99</ele>
        <time>2016-05-18T01:29:22Z</time>
      </trkpt>
      <trkpt lat="48.40692" lon="2.52465">
        <ele>99</ele>
        <time>2016-05-18T01:31:22Z</time>
      </trkpt>
      <trkpt lat="48.40683" lon="2.52483">
        <ele>98</ele>
        <time>2016-05-18T01:33:22Z</time>
      </trkpt>
      <trkpt lat="48.40662" lon="2.52524">
        <ele>97</ele>
        <time>2016-05-18T01:35:22Z</time>
      </trkpt>
      <trkpt lat="48.40644" lon="2.52555">
        <ele>97</ele>
        <time>2016-05-18T01:37:22Z</time>
      </trkpt>
      <trkpt lat="48.40609" lon="2.52611">
        <ele>96</ele>
        <time>2016-05-18T01:39:22Z</time>
      </trkpt>
      <trkpt lat="48.40575" lon="2.52675">
        <ele>96</ele>
        <time>2016-05-18T01:41:22Z</time>
      </trkpt>
      <trkpt lat="48.40556" lon="2.52718">
        <ele>96</ele>
        <time>2016-05-18T01:43:22Z</time>
      </trkpt>
      <trkpt lat="48.40552" lon="2.52747">
        <ele>97</ele>
        <time>2016-05-18T01:45:22Z</time>
      </trkpt>
      <trkpt lat="48.40552" lon="2.52764">
        <ele>97</ele>
        <time>2016-05-18T01:47:22Z</time>
      </trkpt>
      <trkpt lat="48.40554" lon="2.52789">
        <ele>97</ele>
        <time>2016-05-18T01:49:22Z</time>
      </trkpt>
      <trkpt lat="48.40556" lon="2.52822">
        <ele>97</ele>
        <time>2016-05-18T01:51:22Z</time>
      </trkpt>
      <trkpt lat="48.40558" lon="2.52854">
        <ele>98</ele>
        <time>2016-05-18T01:53:22Z</time>
      </trkpt>
      <trkpt lat="48.4056" lon="2.52877">
        <ele>98</ele>
        <time>2016-05-18T01:55:22Z</time>
      </trkpt>
      <trkpt lat="48.4056" lon="2.52895">
        <ele>98</ele>
        <time>2016-05-18T01:57:22Z</time>
      </trkpt>
      <trkpt lat="48.4056" lon="2.5291">
        <ele>98</ele>
        <time>2016-05-18T01:59:22Z</time>
      </trkpt>
      <trkpt lat="48.40559" lon="2.52922">
        <ele>98</ele>
        <time>2016-05-18T02:01:22Z</time>
      </trkpt>
      <trkpt lat="48.4056" lon="2.52937">
        <ele>98</ele>
        <time>2016-05-18T02:03:22Z</time>
      </trkpt>
      <trkpt lat="48.40561" lon="2.52954">
        <ele>97</ele>
        <time>2016-05-18T02:05:22Z</time>
      </trkpt>
      <trkpt lat="48.40559" lon="2.52966">
        <ele>97</ele>
        <time>2016-05-18T02:07:22Z</time>
      </trkpt>
      <trkpt lat="48.40558" lon="2.52979">
        <ele>96</ele>
        <time>2016-05-18T02:09:22Z</time>
      </trkpt>
      <trkpt lat="48.40558" lon="2.52992">
        <ele>96</ele>
        <time>2016-05-18T02:11:22Z</time>
      </trkpt>
      <trkpt lat="48.40559" lon="2.53006">
        <ele>95</ele>
        <time>2016-05-18T02:13:22Z</time>
      </trkpt>
      <trkpt lat="48.4056" lon="2.53016">
        <ele>96</ele>
        <time>2016-05-18T02:15:22Z</time>
      </trkpt>
      <trkpt lat="48.40562" lon="2.53031">
        <ele>96</ele>
        <time>2016-05-18T02:17:22Z</time>
      </trkpt>
      <trkpt lat="48.40566" lon="2.53047">
        <ele>96</ele>
        <time>2016-05-18T02:19:22Z</time>
      </trkpt>
      <trkpt lat="48.40566" lon="2.53057">
        <ele>96</ele>
        <time>2016-05-18T02:21:22Z</time>
      </trkpt>
      <trkpt lat="48.40565" lon="2.53067">
        <ele>96</ele>
        <time>2016-05-18T02:23:22Z</time>
      </trkpt>
      <trkpt lat="48.40561" lon="2.53076">
        <ele>95</ele>
        <time>2016-05-18T02:25:22Z</time>
      </trkpt>
      <trkpt lat="48.40561" lon="2.53088">
        <ele>95</ele>
        <time>2016-05-18T02:27:22Z</time>
      </trkpt>
      <trkpt lat="48.40558" lon="2.53101">
        <ele>96</ele>
        <time>2016-05-18T02:29:22Z</time>
      </trkpt>
      <trkpt lat="48.40538" lon="2.53156">
        <ele>96</ele>
        <time>2016-05-18T02:31:22Z</time>
      </trkpt>
      <trkpt lat="48.40515" lon="2.53222">
        <ele>96</ele>
        <time>2016-05-18T02:33:22Z</time>
      </trkpt>
      <trkpt lat="48.40476" lon="2.53332">
        <ele>94</ele>
        <time>2016-05-18T02:35:22Z</time>
      </trkpt>
      <trkpt lat="48.40456" lon="2.53385">
        <ele>95</ele>
        <time>2016-05-18T02:37:22Z</time>
      </trkpt>
      <trkpt lat="48.4045" lon="2.53406">
        <ele>95</ele>
        <time>2016-05-18T02:39:22Z</time>
      </trkpt>
      <trkpt lat="48.40448" lon="2.53421">
        <ele>96</ele>
        <time>2016-05-18T02:41:22Z</time>
      </trkpt>
      <trkpt lat="48.40444" lon="2.53438">
        <ele>96</ele>
        <time>2016-05-18T02:43:22Z</time>
      </trkpt>
      <trkpt lat="48.40441" lon="2.53455">
        <ele>97</ele>
        <time>2016-05-18T02:45:22Z</time>
      </trkpt>
      <trkpt lat="48.40439" lon="2.53475">
        <ele>98</ele>
        <time>2016-05-18T02:47:22Z</time>
      </trkpt>
      <trkpt lat="48.40437" lon="2.53493">
        <ele>98</ele>
        <time>2016-05-18T02:49:22Z</time>
      </trkpt>
      <trkpt lat="48.40434" lon="2.53516">
        <ele>99</ele>
        <time>2016-05-18T02:51:22Z</time>
      </trkpt>
      <trkpt lat="48.4043" lon="2.53525">
        <ele>99</ele>
        <time>2016-05-18T02:53:22Z</time>
      </trkpt>
      <trkpt lat="48.40425" lon="2.53535">
        <ele>99</ele>
        <time>2016-05-18T02:55:22Z</time>
      </trkpt>
      <trkpt lat="48.40415" lon="2.53558">
        <ele>99</ele>
        <time>2016-05-18T02:57:22Z</time>
      </trkpt>
      <trkpt lat="48.40408" lon="2.53576">
        <ele>100</ele>
        <time>2016-05-18T02:59:22Z</time>
      </trkpt>
      <trkpt lat="48.40416" lon="2.53608">
        <ele>100</ele>
        <time>2016-05-18T03:01:22Z</time>
      </trkpt>
      <trkpt lat="48.40425" lon="2.53648">
        <ele>100</ele>
        <time>2016-05-18T03:03:22Z</time>
      </trkpt>
      <trkpt lat="48.40413" lon="2.53648">
        <ele>99</ele>
        <time>2016-05-18T03:05:22Z</time>
      </trkpt>
      <trkpt lat="48.40397" lon="2.53643">
        <ele>99</ele>
        <time>2016-05-18T03:07:22Z</time>
      </trkpt>
      <trkpt lat="48.40379" lon="2.5364">
        <ele>99</ele>
        <time>2016-05-18T03:09:22Z</time>
      </trkpt>
      <trkpt lat="48.40334" lon="2.53727">
        <ele>98</ele>
        <time>2016-05-18T03:11:22Z</time>
      </trkpt>
      <trkpt lat="48.40321" lon="2.53743">
        <ele>98</ele>
        <time>2016-05-18T03:13:22Z</time>
      </trkpt>
      <trkpt lat="48.40302" lon="2.53765">
        <ele>99</ele>
        <time>2016-05-18T03:15:22Z</time>
      </trkpt>
      <trkpt lat="48.40289" lon="2.53782">
        <ele>99</ele>
        <time>2016-05-18T03:17:22Z</time>
      </trkpt>
      <trkpt lat="48.40271" lon="2.5381">
        <ele>99</ele>
        <time>2016-05-18T03:19:22Z</time>
      </trkpt>
      <trkpt lat="48.40251" lon="2.53839">
        <ele>100</ele>
        <time>2016-05-18T03:21:22Z</time>
      </trkpt>
      <trkpt lat="48.40214" lon="2.53749">
        <ele>106</ele>
        <time>2016-05-18T03:23:22Z</time>
      </trkpt>
      <trkpt lat="48.40215" lon="2.53738">
        <ele>107</ele>
        <time>2016-05-18T03:25:22Z</time>
      </trkpt>
      <trkpt lat="48.40221" lon="2.53727">
        <ele>106</ele>
        <time>2016-05-18T03:27:22Z</time>
      </trkpt>
      <trkpt lat="48.40224" lon="2.53706">
        <ele>107</ele>
        <time>2016-05-18T03:29:22Z</time>
      </trkpt>
      <trkpt lat="48.40229" lon="2.53597">
        <ele>113</ele>
        <time>2016-05-18T03:31:22Z</time>
      </trkpt>
      <trkpt lat="48.40235" lon="2.53552">
        <ele>116</ele>
        <time>2016-05-18T03:33:22Z</time>
      </trkpt>
      <trkpt lat="48.40235" lon="2.5353">
        <ele>117</ele>
        <time>2016-05-18T03:35:22Z</time>
      </trkpt>
      <trkpt lat="48.40233" lon="2.53517">
        <ele>118</ele>
        <time>2016-05-18T03:37:22Z</time>
      </trkpt>
      <trkpt lat="48.40229" lon="2.53504">
        <ele>120</ele>
        <time>2016-05-18T03:39:22Z</time>
      </trkpt>
      <trkpt lat="48.40226" lon="2.53495">
        <ele>120</ele>
        <time>2016-05-18T03:41:22Z</time>
      </trkpt>
      <trkpt lat="48.40217" lon="2.53493">
        <ele>121</ele>
        <time>2016-05-18T03:43:22Z</time>
      </trkpt>
      <trkpt lat="48.40208" lon="2.5349">
        <ele>122</ele>
        <time>2016-05-18T03:45:22Z</time>
      </trkpt>
      <trkpt lat="48.40199" lon="2.53491">
        <ele>123</ele>
        <time>2016-05-18T03:47:22Z</time>
      </trkpt>
      <trkpt lat="48.40192" lon="2.53494">
        <ele>124</ele>
        <time>2016-05-18T03:49:22Z</time>
      </trkpt>
      <trkpt lat="48.40176" lon="2.53499">
        <ele>125</ele>
        <time>2016-05-18T03:51:22Z</time>
      </trkpt>
      <trkpt lat="48.40167" lon="2.535">
        <ele>126</ele>
        <time>2016-05-18T03:53:22Z</time>
      </trkpt>
      <trkpt lat="48.40154" lon="2.53492">
        <ele>126</ele>
        <time>2016-05-18T03:55:22Z</time>
      </trkpt>
      <trkpt lat="48.40143" lon="2.53491">
        <ele>126</ele>
        <time>2016-05-18T03:57:22Z</time>
      </trkpt>
      <trkpt lat="48.40135" lon="2.53488">
        <ele>126</ele>
        <time>2016-05-18T03:59:22Z</time>
      </trkpt>
      <trkpt lat="48.4012" lon="2.5348">
        <ele>126</ele>
        <time>2016-05-18T04:01:22Z</time>
      </trkpt>
      <trkpt lat="48.40112" lon="2.53471">
        <ele>126</ele>
        <time>2016-05-18T04:03:22Z</time>
      </trkpt>
      <trkpt lat="48.401" lon="2.53461">
        <ele>125</ele>
        <time>2016-05-18T04:05:22Z</time>
      </trkpt>
      <trkpt lat="48.40087" lon="2.53435">
        <ele>124</ele>
        <time>2016-05-18T04:07:22Z</time>
      </trkpt>
      <trkpt lat="48.40074" lon="2.53418">
        <ele>122</ele>
        <time>2016-05-18T04:09:22Z</time>
      </trkpt>
      <trkpt lat="48.40062" lon="2.53413">
        <ele>120</ele>
        <time>2016-05-18T04:11:22Z</time>
      </trkpt>
      <trkpt lat="48.40049" lon="2.53414">
        <ele>118</ele>
        <time>2016-05-18T04:13:22Z</time>
      </trkpt>
      <trkpt lat="48.4003" lon="2.5342">
        <ele>116</ele>
        <time>2016-05-18T04:15:22Z</time>
      </trkpt>
      <trkpt lat="48.40018" lon="2.53423">
        <ele>115</ele>
        <time>2016-05-18T04:17:22Z</time>
      </trkpt>
      <trkpt lat="48.40012" lon="2.53433">
        <ele>115</ele>
        <time>2016-05-18T04:19:22Z</time>
      </trkpt>
      <trkpt lat="48.40008" lon="2.53442">
        <ele>115</ele>
        <time>2016-05-18T04:21:22Z</time>
      </trkpt>
      <trkpt lat="48.40001" lon="2.5345">
        <ele>115</ele>
        <time>2016-05-18T04:23:22Z</time>
      </trkpt>
      <trkpt lat="48.39998" lon="2.53457">
        <ele>115</ele>
        <time>2016-05-18T04:25:22Z</time>
      </trkpt>
      <trkpt lat="48.39994" lon="2.53467">
        <ele>115</ele>
        <time>2016-05-18T04:27:22Z</time>
      </trkpt>
      <trkpt lat="48.39992" lon="2.53482">
        <ele>115</ele>
        <time>2016-05-18T04:29:22Z</time>
      </trkpt>
      <trkpt lat="48.3999" lon="2.53495">
        <ele>116</ele>
        <time>2016-05-18T04:31:22Z</time>
      </trkpt>
      <trkpt lat="48.39987" lon="2.53504">
        <ele>116</ele>
        <time>2016-05-18T04:33:22Z</time>
      </trkpt>
      <trkpt lat="48.3998" lon="2.53513">
        <ele>115</ele>
        <time>2016-05-18T04:35:22Z</time>
      </trkpt>
      <trkpt lat="48.39975" lon="2.53525">
        <ele>114</ele>
        <time>2016-05-18T04:37:22Z</time>
      </trkpt>
      <trkpt lat="48.39976" lon="2.53533">
        <ele>114</ele>
        <time>2016-05-18T04:39:22Z</time>
      </trkpt>
      <trkpt lat="48.39976" lon="2.53544">
        <ele>114</ele>
        <time>2016-05-18T04:41:22Z</time>
      </trkpt>
      <trkpt lat="48.39973" lon="2.53552">
        <ele>114</ele>
        <time>2016-05-18T04:43:22Z</time>
      </trkpt>
      <trkpt lat="48.3997" lon="2.53563">
        <ele>114</ele>
        <time>2016-05-18T04:45:22Z</time>
      </trkpt>
      <trkpt lat="48.3997" lon="2.53573">
        <ele>114</ele>
        <time>2016-05-18T04:47:22Z</time>
      </trkpt>
      <trkpt lat="48.39971" lon="2.53585">
        <ele>114</ele>
        <time>2016-05-18T04:49:22Z</time>
      </trkpt>
      <trkpt lat="48.39976" lon="2.53594">
        <ele>114</ele>
        <time>2016-05-18T04:51:22Z</time>
      </trkpt>
      <trkpt lat="48.39981" lon="2.53603">
        <ele>114</ele>
        <time>2016-05-18T04:53:22Z</time>
      </trkpt>
      <trkpt lat="48.39988" lon="2.53609">
        <ele>115</ele>
        <time>2016-05-18T04:55:22Z</time>
      </trkpt>
      <trkpt lat="48.39993" lon="2.53619">
        <ele>115</ele>
        <time>2016-05-18T04:57:22Z</time>
      </trkpt>
      <trkpt lat="48.40001" lon="2.53628">
        <ele>116</ele>
        <time>2016-05-18T04:59:22Z</time>
      </trkpt>
      <trkpt lat="48.40007" lon="2.53641">
        <ele>116</ele>
        <time>2016-05-18T05:01:22Z</time>
      </trkpt>
      <trkpt lat="48.40011" lon="2.53654">
        <ele>116</ele>
        <time>2016-05-18T05:03:22Z</time>
      </trkpt>
      <trkpt lat="48.40012" lon="2.53666">
        <ele>116</ele>
        <time>2016-05-18T05:05:22Z</time>
      </trkpt>
      <trkpt lat="48.40016" lon="2.53683">
        <ele>116</ele>
        <time>2016-05-18T05:07:22Z</time>
      </trkpt>
      <trkpt lat="48.4002" lon="2.53703">
        <ele>116</ele>
        <time>2016-05-18T05:09:22Z</time>
      </trkpt>
      <trkpt lat="48.40025" lon="2.53719">
        <ele>116</ele>
        <time>2016-05-18T05:11:22Z</time>
      </trkpt>
      <trkpt lat="48.40028" lon="2.53735">
        <ele>116</ele>
        <time>2016-05-18T05:13:22Z</time>
      </trkpt>
      <trkpt lat="48.4003" lon="2.53752">
        <ele>116</ele>
        <time>2016-05-18T05:15:22Z</time>
      </trkpt>
      <trkpt lat="48.40025" lon="2.53768">
        <ele>115</ele>
        <time>2016-05-18T05:17:22Z</time>
      </trkpt>
      <trkpt lat="48.40023" lon="2.53785">
        <ele>114</ele>
        <time>2016-05-18T05:19:22Z</time>
      </trkpt>
      <trkpt lat="48.40022" lon="2.53801">
        <ele>113</ele>
        <time>2016-05-18T05:21:22Z</time>
      </trkpt>
      <trkpt lat="48.40021" lon="2.53815">
        <ele>113</ele>
        <time>2016-05-18T05:23:22Z</time>
      </trkpt>
      <trkpt lat="48.4002" lon="2.53835">
        <ele>112</ele>
        <time>2016-05-18T05:25:22Z</time>
      </trkpt>
      <trkpt lat="48.40018" lon="2.53855">
        <ele>112</ele>
        <time>2016-05-18T05:27:22Z</time>
      </trkpt>
      <trkpt lat="48.40016" lon="2.53875">
        <ele>112</ele>
        <time>2016-05-18T05:29:22Z</time>
      </trkpt>
      <trkpt lat="48.40012" lon="2.53894">
        <ele>112</ele>
        <time>2016-05-18T05:31:22Z</time>
      </trkpt>
      <trkpt lat="48.40011" lon="2.53913">
        <ele>112</ele>
        <time>2016-05-18T05:33:22Z</time>
      </trkpt>
      <trkpt lat="48.40011" lon="2.53933">
        <ele>111</ele>
        <time>2016-05-18T05:35:22Z</time>
      </trkpt>
      <trkpt lat="48.40009" lon="2.5396">
        <ele>111</ele>
        <time>2016-05-18T05:37:22Z</time>
      </trkpt>
      <trkpt lat="48.40009" lon="2.53973">
        <ele>110</ele>
        <time>2016-05-18T05:39:22Z</time>
      </trkpt>
      <trkpt lat="48.40002" lon="2.53976">
        <ele>110</ele>
        <time>2016-05-18T05:41:22Z</time>
      </trkpt>
      <trkpt lat="48.39994" lon="2.53974">
        <ele>109</ele>
        <time>2016-05-18T05:43:22Z</time>
      </trkpt>
      <trkpt lat="48.39988" lon="2.53971">
        <ele>108</ele>
        <time>2016-05-18T05:45:22Z</time>
      </trkpt>
      <trkpt lat="48.39985" lon="2.53961">
        <ele>108</ele>
        <time>2016-05-18T05:47:22Z</time>
      </trkpt>
      <trkpt lat="48.39981" lon="2.53948">
        <ele>107</ele>
        <time>2016-05-18T05:49:22Z</time>
      </trkpt>
      <trkpt lat="48.39974" lon="2.53956">
        <ele>106</ele>
        <time>2016-05-18T05:51:22Z</time>
      </trkpt>
      <trkpt lat="48.3997" lon="2.53967">
        <ele>105</ele>
        <time>2016-05-18T05:53:22Z</time>
      </trkpt>
      <trkpt lat="48.39969" lon="2.53977">
        <ele>105</ele>
        <time>2016-05-18T05:55:22Z</time>
      </trkpt>
      <trkpt lat="48.39971" lon="2.53992">
        <ele>105</ele>
        <time>2016-05-18T05:57:22Z</time>
      </trkpt>
      <trkpt lat="48.39975" lon="2.54007">
        <ele>105</ele>
        <time>2016-05-18T05:59:22Z</time>
      </trkpt>
      <trkpt lat="48.39979" lon="2.5402">
        <ele>104</ele>
        <time>2016-05-18T06:01:22Z</time>
      </trkpt>
      <trkpt lat="48.39979" lon="2.54032">
        <ele>103</ele>
        <time>2016-05-18T06:03:22Z</time>
      </trkpt>
      <trkpt lat="48.39976" lon="2.54041">
        <ele>102</ele>
        <time>2016-05-18T06:05:22Z</time>
      </trkpt>
      <trkpt lat="48.3997" lon="2.54047">
        <ele>100</ele>
        <time>2016-05-18T06:07:22Z</time>
      </trkpt>
      <trkpt lat="48.39963" lon="2.54051">
        <ele>99</ele>
        <time>2016-05-18T06:09:22Z</time>
      </trkpt>
      <trkpt lat="48.3995" lon="2.54038">
        <ele>99</ele>
        <time>2016-05-18T06:11:22Z</time>
      </trkpt>
      <trkpt lat="48.39934" lon="2.54021">
        <ele>98</ele>
        <time>2016-05-18T06:13:22Z</time>
      </trkpt>
      <trkpt lat="48.39922" lon="2.54006">
        <ele>97</ele>
        <time>2016-05-18T06:15:22Z</time>
      </trkpt>
      <trkpt lat="48.3991" lon="2.53997">
        <ele>96</ele>
        <time>2016-05-18T06:17:22Z</time>
      </trkpt>
      <trkpt lat="48.39897" lon="2.53992">
        <ele>95</ele>
        <time>2016-05-18T06:19:22Z</time>
      </trkpt>
      <trkpt lat="48.39885" lon="2.53991">
        <ele>94</ele>
        <time>2016-05-18T06:21:22Z</time>
      </trkpt>
      <trkpt lat="48.39876" lon="2.53996">
        <ele>93</ele>
        <time>2016-05-18T06:23:22Z</time>
      </trkpt>
      <trkpt lat="48.39866" lon="2.5398">
        <ele>92</ele>
        <time>2016-05-18T06:25:22Z</time>
      </trkpt>
      <trkpt lat="48.3986" lon="2.5398">
        <ele>92</ele>
        <time>2016-05-18T06:27:22Z</time>
      </trkpt>
      <trkpt lat="48.39853" lon="2.53988">
        <ele>91</ele>
        <time>2016-05-18T06:29:22Z</time>
      </trkpt>
      <trkpt lat="48.39845" lon="2.54002">
        <ele>90</ele>
        <time>2016-05-18T06:31:22Z</time>
      </trkpt>
      <trkpt lat="48.3984" lon="2.54011">
        <ele>89</ele>
        <time>2016-05-18T06:33:22Z</time>
      </trkpt>
      <trkpt lat="48.39832" lon="2.54022">
        <ele>89</ele>
        <time>2016-05-18T06:35:22Z</time>
      </trkpt>
      <trkpt lat="48.39823" lon="2.54031">
        <ele>88</ele>
        <time>2016-05-18T06:37:22Z</time>
      </trkpt>
      <trkpt lat="48.39814" lon="2.54038">
        <ele>88</ele>
        <time>2016-05-18T06:39:22Z</time>
      </trkpt>
      <trkpt lat="48.39799" lon="2.54049">
        <ele>87</ele>
        <time>2016-05-18T06:41:22Z</time>
      </trkpt>
      <trkpt lat="48.39779" lon="2.54066">
        <ele>86</ele>
        <time>2016-05-18T06:43:22Z</time>
      </trkpt>
      <trkpt lat="48.39678" lon="2.54163">
        <ele>90</ele>
        <time>2016-05-18T06:45:22Z</time>
      </trkpt>
      <trkpt lat="48.3968" lon="2.54185">
        <ele>90</ele>
        <time>2016-05-18T06:47:22Z</time>
      </trkpt>
      <trkpt lat="48.39682" lon="2.54198">
        <ele>90</ele>
        <time>2016-05-18T06:49:22Z</time>
      </trkpt>
      <trkpt lat="48.39686" lon="2.54213">
        <ele>90</ele>
        <time>2016-05-18T06:51:22Z</time>
      </trkpt>
      <trkpt lat="48.39691" lon="2.54235">
        <ele>90</ele>
        <time>2016-05-18T06:53:22Z</time>
      </trkpt>
      <trkpt lat="48.39697" lon="2.54255">
        <ele>89</ele>
        <time>2016-05-18T06:55:22Z</time>
      </trkpt>
      <trkpt lat="48.39703" lon="2.54287">
        <ele>87</ele>
        <time>2016-05-18T06:57:22Z</time>
      </trkpt>
      <trkpt lat="48.3971" lon="2.54299">
        <ele>86</ele>
        <time>2016-05-18T06:59:22Z</time>
      </trkpt>
      <trkpt lat="48.39717" lon="2.54319">
        <ele>84</ele>
        <time>2016-05-18T07:01:22Z</time>
      </trkpt>
      <trkpt lat="48.39722" lon="2.54336">
        <ele>83</ele>
        <time>2016-05-18T07:03:22Z</time>
      </trkpt>
      <trkpt lat="48.39726" lon="2.54348">
        <ele>83</ele>
        <time>2016-05-18T07:05:22Z</time>
      </trkpt>
      <trkpt lat="48.39732" lon="2.54363">
        <ele>82</ele>
        <time>2016-05-18T07:07:22Z</time>
      </trkpt>
      <trkpt lat="48.39718" lon="2.54445">
        <ele>81</ele>
        <time>2016-05-18T07:09:22Z</time>
      </trkpt>
      <trkpt lat="48.39716" lon="2.5446">
        <ele>81</ele>
        <time>2016-05-18T07:11:22Z</time>
      </trkpt>
      <trkpt lat="48.3971" lon="2.54481">
        <ele>80</ele>
        <time>2016-05-18T07:13:22Z</time>
      </trkpt>
      <trkpt lat="48.39706" lon="2.54502">
        <ele>80</ele>
        <time>2016-05-18T07:15:22Z</time>
      </trkpt>
      <trkpt lat="48.397" lon="2.54539">
        <ele>80</ele>
        <time>2016-05-18T07:17:22Z</time>
      </trkpt>
      <trkpt lat="48.39708" lon="2.54532">
        <ele>80</ele>
        <time>2016-05-18T07:19:22Z</time>
      </trkpt>
      <trkpt lat="48.39721" lon="2.54534">
        <ele>80</ele>
        <time>2016-05-18T07:21:22Z</time>
      </trkpt>
      <trkpt lat="48.39733" lon="2.54533">
        <ele>79</ele>
        <time>2016-05-18T07:23:22Z</time>
      </trkpt>
      <trkpt lat="48.39754" lon="2.54543">
        <ele>79</ele>
        <time>2016-05-18T07:25:22Z</time>
      </trkpt>
      <trkpt lat="48.39788" lon="2.54557">
        <ele>79</ele>
        <time>2016-05-18T07:27:22Z</time>
      </trkpt>
      <trkpt lat="48.3986" lon="2.54589">
        <ele>78</ele>
        <time>2016-05-18T07:29:22Z</time>
      </trkpt>
      <trkpt lat="48.39882" lon="2.54598">
        <ele>78</ele>
        <time>2016-05-18T07:31:22Z</time>
      </trkpt>
      <trkpt lat="48.39907" lon="2.54606">
        <ele>77</ele>
        <time>2016-05-18T07:33:22Z</time>
      </trkpt>
      <trkpt lat="48.39938" lon="2.54614">
        <ele>76</ele>
        <time>2016-05-18T07:35:22Z</time>
      </trkpt>
      <trkpt lat="48.39969" lon="2.54625">
        <ele>76</ele>
        <time>2016-05-18T07:37:22Z</time>
      </trkpt>
      <trkpt lat="48.40024" lon="2.54651">
        <ele>76</ele>
        <time>2016-05-18T07:39:22Z</time>
      </trkpt>
      <trkpt lat="48.40052" lon="2.54661">
        <ele>76</ele>
        <time>2016-05-18T07:41:22Z</time>
      </trkpt>
      <trkpt lat="48.40113" lon="2.54684">
        <ele>78</ele>
        <time>2016-05-18T07:43:22Z</time>
      </trkpt>
      <trkpt lat="48.40129" lon="2.54692">
        <ele>79</ele>
        <time>2016-05-18T07:45:22Z</time>
      </trkpt>
      <trkpt lat="48.40137" lon="2.54694">
        <ele>80</ele>
        <time>2016-05-18T07:47:22Z</time>
      </trkpt>
      <trkpt lat="48.40144" lon="2.54699">
        <ele>80</ele>
        <time>2016-05-18T07:49:22Z</time>
      </trkpt>
      <trkpt lat="48.40139" lon="2.54664">
        <ele>79</ele>
        <time>2016-05-18T07:51:22Z</time>
      </trkpt>
      <trkpt lat="48.40135" lon="2.54636">
        <ele>79</ele>
        <time>2016-05-18T07:53:22Z</time>
      </trkpt>
    </trkseg>
  </trk>
</gpx>